createdAt,value
2017-08-18T00:00:18.482Z,11.77
2017-08-18T00:02:46.040Z,10.90
2017-08-18T00:05:13.593Z,11.90
2017-08-18T00:07:41.160Z,11.50
2017-08-18T00:10:08.707Z,10.80
2017-08-18T00:12:36.220Z,10.50
2017-08-18T00:15:04.040Z,10.67
2017-08-18T00:17:32.155Z,10.70
2017-08-18T00:19:59.670Z,9.80
2017-08-18T00:22:27.973Z,11.80
2017-08-18T00:24:55.486Z,11.80
2017-08-18T00:27:23.001Z,11.50
2017-08-18T00:29:50.528Z,10.93
2017-08-18T00:32:18.052Z,11.60
2017-08-18T00:34:45.566Z,10.27
2017-08-18T00:37:13.083Z,11.73
2017-08-18T00:39:40.711Z,12.33
2017-08-18T00:42:08.223Z,10.97
2017-08-18T00:44:39.176Z,11.73
2017-08-18T00:47:07.444Z,11.50
2017-08-18T00:49:35.217Z,10.67
2017-08-18T00:52:02.724Z,9.83
2017-08-18T00:54:31.000Z,10.60
2017-08-18T00:56:58.515Z,12.67
2017-08-18T00:59:29.072Z,11.90
2017-08-18T01:01:56.622Z,11.70
2017-08-18T01:04:24.164Z,13.70
2017-08-18T01:06:51.697Z,11.83
2017-08-18T01:09:19.220Z,12.20
2017-08-18T01:11:46.728Z,9.57
2017-08-18T01:14:15.094Z,10.77
2017-08-18T01:16:42.611Z,10.87
2017-08-18T01:19:10.187Z,11.80
2017-08-18T01:21:37.716Z,12.57
2017-08-18T01:24:06.153Z,12.80
2017-08-18T01:26:33.696Z,11.77
2017-08-18T01:29:04.107Z,12.90
2017-08-18T01:31:31.634Z,12.10
2017-08-18T01:33:59.163Z,12.13
2017-08-18T01:36:26.677Z,12.10
2017-08-18T01:38:54.225Z,11.80
2017-08-18T01:41:21.790Z,11.40
2017-08-18T01:43:53.768Z,12.33
2017-08-18T01:46:21.272Z,12.33
2017-08-18T01:48:49.559Z,13.20
2017-08-18T01:51:17.136Z,11.37
2017-08-18T01:53:44.655Z,12.27
2017-08-18T01:56:12.190Z,13.10
2017-08-18T01:58:39.711Z,12.73
2017-08-18T02:01:07.231Z,12.47
2017-08-18T02:03:34.765Z,13.17
2017-08-18T02:06:02.284Z,14.20
2017-08-18T02:08:29.820Z,13.87
2017-08-18T02:10:57.375Z,12.87
2017-08-18T02:13:25.044Z,13.30
2017-08-18T02:15:52.605Z,14.80
2017-08-18T02:18:20.115Z,10.43
2017-08-18T02:20:47.628Z,8.37
2017-08-18T02:23:15.191Z,9.17
2017-08-18T02:25:42.717Z,10.60
2017-08-18T02:28:14.812Z,9.80
2017-08-18T02:30:43.103Z,10.83
2017-08-18T02:33:10.659Z,11.53
2017-08-18T02:35:39.439Z,9.60
2017-08-18T02:38:07.000Z,9.80
2017-08-18T02:40:34.539Z,9.60
2017-08-18T02:43:02.056Z,8.20
2017-08-18T02:45:29.576Z,12.13
2017-08-18T02:47:57.147Z,11.30
2017-08-18T02:50:24.692Z,12.13
2017-08-18T02:52:52.304Z,13.10
2017-08-18T02:55:19.823Z,13.90
2017-08-18T02:57:48.227Z,12.70
2017-08-18T03:00:15.796Z,12.87
2017-08-18T03:02:43.351Z,15.17
2017-08-18T03:05:10.904Z,13.10
2017-08-18T03:07:38.412Z,12.50
2017-08-18T03:10:05.923Z,10.00
2017-08-18T03:12:34.236Z,10.40
2017-08-18T03:15:04.819Z,11.33
2017-08-18T03:17:32.366Z,9.70
2017-08-18T03:19:59.873Z,10.33
2017-08-18T03:22:27.382Z,10.60
2017-08-18T03:24:54.955Z,10.90
2017-08-18T03:27:22.464Z,11.37
2017-08-18T03:29:54.479Z,12.37
2017-08-18T03:32:22.860Z,11.40
2017-08-18T03:34:50.395Z,8.70
2017-08-18T03:37:17.898Z,11.53
2017-08-18T03:39:45.470Z,12.50
2017-08-18T03:42:12.987Z,11.57
2017-08-18T03:44:40.491Z,11.10
2017-08-18T03:47:08.508Z,12.90
2017-08-18T03:49:36.041Z,12.83
2017-08-18T03:52:03.543Z,11.67
2017-08-18T03:54:31.103Z,13.33
2017-08-18T03:56:58.650Z,11.93
2017-08-18T03:59:29.458Z,12.73
2017-08-18T04:01:56.999Z,12.07
2017-08-18T04:04:24.530Z,12.10
2017-08-18T04:06:52.048Z,11.57
2017-08-18T04:09:19.608Z,11.80
2017-08-18T04:11:47.140Z,11.60
2017-08-18T04:14:14.648Z,11.13
2017-08-18T04:16:42.180Z,10.53
2017-08-18T04:19:10.576Z,9.97
2017-08-18T04:21:38.091Z,12.33
2017-08-18T04:24:05.600Z,13.07
2017-08-18T04:26:33.153Z,13.40
2017-08-18T04:29:00.663Z,13.30
2017-08-18T04:31:28.210Z,13.27
2017-08-18T04:33:55.739Z,14.30
2017-08-18T04:36:23.279Z,13.23
2017-08-18T04:38:50.884Z,12.00
2017-08-18T04:41:18.396Z,12.70
2017-08-18T04:43:45.967Z,12.73
2017-08-18T04:46:13.607Z,12.90
2017-08-18T04:48:41.192Z,13.73
2017-08-18T04:51:08.740Z,11.40
2017-08-18T04:53:36.255Z,13.40
2017-08-18T04:56:03.858Z,11.37
2017-08-18T04:58:31.364Z,11.53
2017-08-18T05:00:58.867Z,12.03
2017-08-18T05:03:26.417Z,12.70
2017-08-18T05:05:54.775Z,11.83
2017-08-18T05:08:22.327Z,11.37
2017-08-18T05:10:49.843Z,10.40
2017-08-18T05:13:17.343Z,9.90
2017-08-18T05:15:44.861Z,12.30
2017-08-18T05:18:12.419Z,11.87
2017-08-18T05:20:39.923Z,7.83
2017-08-18T05:23:07.433Z,8.47
2017-08-18T05:25:34.939Z,9.73
2017-08-18T05:28:02.471Z,8.90
2017-08-18T05:30:30.020Z,14.07
2017-08-18T05:32:57.543Z,12.40
2017-08-18T05:35:25.900Z,15.00
2017-08-18T05:37:53.428Z,14.53
2017-08-18T05:40:22.152Z,14.90
2017-08-18T05:42:49.651Z,14.07
2017-08-18T05:45:17.183Z,14.63
2017-08-18T05:47:44.715Z,13.60
2017-08-18T05:50:12.275Z,14.57
2017-08-18T05:52:39.819Z,15.13
2017-08-18T05:55:07.343Z,11.93
2017-08-18T05:57:34.847Z,11.63
2017-08-18T06:00:02.359Z,15.30
2017-08-18T06:02:34.359Z,12.20
2017-08-18T06:05:01.919Z,11.67
2017-08-18T06:07:29.478Z,13.10
2017-08-18T06:09:57.568Z,14.30
2017-08-18T06:12:25.151Z,12.83
2017-08-18T06:14:52.671Z,11.97
2017-08-18T06:17:20.229Z,12.63
2017-08-18T06:19:51.196Z,14.87
2017-08-18T06:22:18.722Z,12.03
2017-08-18T06:24:46.248Z,13.27
2017-08-18T06:27:13.817Z,12.37
2017-08-18T06:29:41.348Z,11.77
2017-08-18T06:32:08.862Z,12.80
2017-08-18T06:34:36.413Z,12.10
2017-08-18T06:37:03.947Z,11.87
2017-08-18T06:39:31.453Z,9.80
2017-08-18T06:41:59.935Z,11.50
2017-08-18T06:44:27.472Z,9.97
2017-08-18T06:46:59.825Z,10.43
2017-08-18T06:49:27.347Z,9.53
2017-08-18T06:51:54.863Z,8.97
2017-08-18T06:54:22.417Z,9.27
2017-08-18T06:56:49.952Z,8.87
2017-08-18T06:59:17.500Z,9.37
2017-08-18T07:01:45.036Z,8.17
2017-08-18T07:04:12.578Z,8.63
2017-08-18T07:06:40.139Z,8.90
2017-08-18T07:09:07.709Z,10.10
2017-08-18T07:11:35.220Z,9.60
2017-08-18T07:14:04.253Z,8.80
2017-08-18T07:16:31.758Z,8.53
2017-08-18T07:18:59.279Z,8.87
2017-08-18T07:21:26.846Z,8.50
2017-08-18T07:23:54.511Z,8.90
2017-08-18T07:26:22.025Z,8.73
2017-08-18T07:28:49.527Z,9.03
2017-08-18T07:31:17.103Z,8.20
2017-08-18T07:33:44.648Z,8.27
2017-08-18T07:36:12.207Z,8.60
2017-08-18T07:38:39.789Z,7.90
2017-08-18T07:41:07.356Z,8.43
2017-08-18T07:43:34.857Z,8.40
2017-08-18T07:46:02.501Z,8.23
2017-08-18T07:48:30.028Z,8.40
2017-08-18T07:50:57.583Z,8.57
2017-08-18T07:53:25.091Z,9.20
2017-08-18T07:55:52.608Z,8.63
2017-08-18T07:58:20.112Z,7.30
2017-08-18T08:00:47.716Z,8.73
2017-08-18T08:03:15.280Z,8.37
2017-08-18T08:05:42.788Z,8.13
2017-08-18T08:08:10.332Z,8.90
2017-08-18T08:10:37.842Z,7.80
2017-08-18T08:13:05.420Z,7.20
2017-08-18T08:15:33.015Z,7.30
2017-08-18T08:18:00.555Z,7.23
2017-08-18T08:20:28.055Z,7.37
2017-08-18T08:22:55.710Z,7.63
2017-08-18T08:25:23.256Z,7.47
2017-08-18T08:27:51.535Z,7.33
2017-08-18T08:30:19.052Z,8.00
2017-08-18T08:32:46.590Z,7.80
2017-08-18T08:35:14.156Z,7.90
2017-08-18T08:37:41.712Z,7.13
2017-08-18T08:40:09.231Z,7.77
2017-08-18T08:42:36.743Z,7.93
2017-08-18T08:45:04.278Z,8.73
2017-08-18T08:48:01.500Z,8.20
2017-08-18T08:50:33.535Z,7.83
2017-08-18T08:53:01.066Z,7.07
2017-08-18T08:55:28.583Z,6.90
2017-08-18T08:57:56.105Z,7.00
2017-08-18T09:00:23.636Z,7.53
2017-08-18T09:02:52.220Z,7.20
2017-08-18T09:05:27.321Z,6.60
2017-08-18T09:07:54.839Z,7.10
2017-08-18T09:10:22.447Z,6.53
2017-08-18T09:12:49.964Z,7.50
2017-08-18T09:15:17.529Z,6.50
2017-08-18T09:17:45.049Z,6.50
2017-08-18T09:20:13.378Z,6.17
2017-08-18T09:22:40.959Z,6.57
2017-08-18T09:25:08.497Z,7.07
2017-08-18T09:27:37.249Z,6.57
2017-08-18T09:30:04.760Z,6.10
2017-08-18T09:32:32.279Z,6.87
2017-08-18T09:35:04.261Z,6.40
2017-08-18T09:37:31.800Z,5.90
2017-08-18T09:39:59.357Z,6.27
2017-08-18T09:42:26.949Z,6.53
2017-08-18T09:44:54.472Z,5.90
2017-08-18T09:47:22.029Z,5.90
2017-08-18T09:50:03.963Z,5.20
2017-08-18T09:55:57.635Z,5.60
2017-08-18T09:58:37.924Z,4.80
2017-08-18T10:01:05.492Z,4.77
2017-08-18T10:03:35.591Z,5.37
2017-08-18T10:06:08.615Z,5.40
2017-08-18T10:08:38.206Z,5.20
2017-08-18T10:14:07.432Z,5.53
2017-08-18T10:16:35.320Z,4.97
2017-08-18T10:19:02.852Z,5.60
2017-08-18T10:21:30.414Z,5.07
2017-08-18T10:23:57.942Z,5.43
2017-08-18T10:26:25.468Z,4.37
2017-08-18T10:28:53.449Z,4.00
2017-08-18T10:31:28.654Z,2.55
2017-08-18T10:40:34.012Z,3.00
2017-08-18T10:45:45.042Z,2.68
2017-08-18T10:48:12.676Z,2.53
2017-08-18T10:50:41.196Z,3.10
2017-08-18T10:53:09.735Z,3.03
2017-08-18T10:55:37.297Z,2.37
2017-08-18T10:58:05.283Z,2.60
2017-08-18T11:00:33.039Z,2.42
2017-08-18T11:03:00.675Z,2.40
2017-08-18T11:05:28.334Z,2.72
2017-08-18T11:07:55.873Z,2.33
2017-08-18T11:10:23.400Z,2.30
2017-08-18T11:12:50.949Z,2.53
2017-08-18T11:15:18.690Z,2.67
2017-08-18T11:17:48.614Z,2.30
2017-08-18T11:20:17.040Z,2.54
2017-08-18T11:22:44.567Z,3.28
2017-08-18T11:25:12.213Z,2.60
2017-08-18T11:27:40.283Z,2.70
2017-08-18T11:30:07.941Z,3.40
2017-08-18T11:32:36.448Z,2.64
2017-08-18T11:35:04.619Z,2.30
2017-08-18T11:37:33.357Z,2.20
2017-08-18T11:40:01.124Z,2.10
2017-08-18T11:42:28.837Z,2.20
2017-08-18T11:48:17.627Z,2.57
2017-08-18T11:50:45.487Z,2.00
2017-08-18T11:53:17.433Z,2.20
2017-08-18T11:55:46.317Z,2.17
2017-08-18T11:58:15.404Z,2.27
2017-08-18T12:00:43.042Z,1.75
2017-08-18T12:03:10.778Z,2.03
2017-08-18T12:05:39.306Z,1.70
2017-08-18T12:08:15.043Z,1.73
2017-08-18T12:10:42.936Z,1.80
2017-08-18T12:13:10.776Z,1.70
2017-08-18T12:15:38.433Z,1.50
2017-08-18T12:18:06.114Z,1.30
2017-08-18T12:20:34.792Z,1.87
2017-08-18T12:23:02.970Z,1.63
2017-08-18T12:25:30.859Z,2.00
2017-08-18T12:28:00.095Z,1.80
2017-08-18T12:30:28.001Z,1.33
2017-08-18T12:33:08.834Z,1.57
2017-08-18T12:35:36.440Z,1.85
2017-08-18T12:38:08.022Z,1.50
2017-08-18T12:40:36.614Z,1.80
2017-08-18T12:43:04.779Z,1.73
2017-08-18T12:45:32.762Z,1.60
2017-08-18T12:48:04.620Z,1.90
2017-08-18T12:50:32.242Z,1.60
2017-08-18T12:53:00.730Z,1.60
2017-08-18T12:55:28.461Z,1.40
2017-08-18T12:57:56.493Z,1.98
2017-08-18T13:00:24.105Z,1.55
2017-08-18T13:02:51.754Z,1.70
2017-08-18T13:05:19.381Z,1.97
2017-08-18T13:07:48.004Z,1.43
2017-08-18T13:10:15.634Z,1.80
2017-08-18T13:12:43.252Z,1.47
2017-08-18T13:15:11.616Z,1.30
2017-08-18T13:36:52.931Z,1.57
2017-08-18T13:39:20.509Z,1.83
2017-08-18T13:41:49.616Z,1.10
2017-08-18T13:44:17.311Z,1.60
2017-08-18T13:46:44.848Z,1.10
2017-08-18T13:49:13.996Z,1.17
2017-08-18T13:51:42.350Z,1.07
2017-08-18T13:54:14.934Z,1.30
2017-08-18T13:56:42.475Z,1.10
2017-08-18T13:59:10.046Z,1.33
2017-08-18T14:01:38.864Z,1.20
2017-08-18T14:04:06.468Z,1.53
2017-08-18T14:06:34.044Z,0.90
2017-08-18T14:09:01.559Z,1.15
2017-08-18T14:11:29.085Z,1.20
2017-08-18T14:13:57.471Z,1.23
2017-08-18T14:16:25.351Z,1.10
2017-08-18T14:18:53.220Z,1.70
2017-08-18T14:21:20.773Z,2.03
2017-08-18T14:23:48.912Z,1.70
2017-08-18T14:26:22.080Z,1.50
2017-08-18T14:28:49.592Z,2.13
2017-08-18T14:31:17.517Z,2.05
2017-08-18T14:33:45.048Z,3.10
2017-08-18T14:36:12.589Z,2.40
2017-08-18T14:38:40.104Z,2.22
2017-08-18T14:41:07.833Z,2.33
2017-08-18T14:43:36.304Z,2.17
2017-08-18T14:46:03.861Z,2.27
2017-08-18T14:48:31.422Z,2.50
2017-08-18T14:50:58.945Z,2.27
2017-08-18T14:53:26.466Z,2.80
2017-08-18T14:55:58.791Z,3.17
2017-08-18T14:58:26.433Z,3.33
2017-08-18T15:00:53.987Z,3.80
2017-08-18T15:03:21.495Z,3.57
2017-08-18T15:05:50.680Z,4.00
2017-08-18T15:08:18.792Z,3.50
2017-08-18T15:10:46.348Z,3.57
2017-08-18T15:13:13.872Z,3.87
2017-08-18T15:15:41.376Z,3.70
2017-08-18T15:18:09.541Z,3.17
2017-08-18T15:20:37.058Z,4.30
2017-08-18T15:23:04.615Z,3.97
2017-08-18T15:25:32.174Z,3.87
2017-08-18T15:27:59.775Z,4.67
2017-08-18T15:30:27.312Z,4.62
2017-08-18T15:32:54.834Z,3.83
2017-08-18T15:35:22.850Z,4.33
2017-08-18T15:37:50.428Z,4.15
2017-08-18T15:40:18.680Z,4.77
2017-08-18T15:42:46.197Z,3.95
2017-08-18T15:45:13.731Z,4.17
2017-08-18T15:47:42.232Z,4.20
2017-08-18T15:50:09.739Z,5.60
2017-08-18T15:52:37.248Z,6.30
2017-08-18T15:55:04.803Z,5.47
2017-08-18T15:57:32.327Z,6.68
2017-08-18T16:00:00.351Z,6.60
2017-08-18T16:02:29.158Z,6.68
2017-08-18T16:04:56.717Z,6.87
2017-08-18T16:07:24.316Z,7.60
2017-08-18T16:09:51.820Z,10.50
2017-08-18T16:12:19.330Z,10.03
2017-08-18T16:14:46.853Z,11.50
2017-08-18T16:17:15.092Z,16.17
2017-08-18T16:19:42.600Z,9.73
2017-08-18T16:22:10.162Z,10.68
2017-08-18T16:24:37.712Z,15.83
2017-08-18T16:27:05.268Z,14.73
2017-08-18T16:29:32.784Z,14.50
2017-08-18T16:32:00.316Z,6.33
2017-08-18T16:34:28.438Z,8.67
2017-08-18T16:36:55.983Z,9.30
2017-08-18T16:39:23.495Z,9.07
2017-08-18T16:41:51.320Z,7.43
2017-08-18T16:44:18.819Z,7.50
2017-08-18T16:46:46.327Z,7.33
2017-08-18T16:49:13.980Z,8.13
2017-08-18T16:51:43.257Z,1.78
2017-08-18T16:54:10.843Z,2.33
2017-08-18T16:56:38.348Z,2.53
2017-08-18T16:59:07.464Z,2.17
2017-08-18T17:01:34.988Z,3.40
2017-08-18T17:04:02.547Z,2.63
2017-08-18T17:06:32.085Z,2.20
2017-08-18T17:09:00.371Z,3.08
2017-08-18T17:11:27.875Z,2.53
2017-08-18T17:13:56.240Z,2.45
2017-08-18T17:16:27.058Z,2.97
2017-08-18T17:18:55.374Z,2.80
2017-08-18T17:21:22.882Z,3.42
2017-08-18T17:23:51.097Z,3.97
2017-08-18T17:26:18.677Z,3.30
2017-08-18T17:28:46.187Z,3.57
2017-08-18T17:31:13.695Z,3.90
2017-08-18T17:33:41.236Z,3.97
2017-08-18T17:36:08.736Z,3.63
2017-08-18T17:38:36.457Z,3.55
2017-08-18T17:41:04.431Z,5.55
2017-08-18T17:43:31.937Z,4.80
2017-08-18T17:46:00.205Z,4.97
2017-08-18T17:48:28.035Z,4.97
2017-08-18T17:50:55.555Z,4.97
2017-08-18T17:53:23.716Z,4.23
2017-08-18T17:55:51.231Z,5.17
2017-08-18T17:58:18.747Z,4.10
2017-08-18T18:00:47.524Z,4.55
2017-08-18T18:03:15.844Z,3.55
2017-08-18T18:05:43.405Z,2.80
2017-08-18T18:08:11.827Z,2.47
2017-08-18T18:10:39.331Z,2.80
2017-08-18T18:13:07.771Z,2.40
2017-08-18T18:15:35.280Z,2.53
2017-08-18T18:18:02.796Z,2.13
2017-08-18T18:20:32.016Z,3.20
2017-08-18T18:22:59.516Z,2.00
2017-08-18T18:25:27.024Z,1.73
2017-08-18T18:27:54.552Z,1.87
2017-08-18T18:30:22.060Z,2.10
2017-08-18T18:32:49.642Z,1.15
2017-08-18T18:35:18.185Z,1.70
2017-08-18T18:37:46.046Z,1.25
2017-08-18T18:40:13.556Z,1.15
2017-08-18T18:42:41.065Z,1.13
2017-08-18T18:45:09.340Z,1.40
2017-08-18T18:47:36.851Z,1.00
2017-08-18T18:50:04.967Z,1.17
2017-08-18T18:52:32.524Z,1.60
2017-08-18T18:55:00.050Z,0.93
2017-08-18T18:57:27.555Z,0.90
2017-08-18T18:59:57.984Z,0.83
2017-08-18T19:02:25.500Z,1.20
2017-08-18T19:04:53.092Z,0.90
2017-08-18T19:07:20.649Z,0.80
2017-08-18T19:09:48.838Z,1.00
2017-08-18T19:12:16.408Z,1.33
2017-08-18T19:14:48.101Z,1.20
2017-08-18T19:17:15.704Z,1.13
2017-08-18T19:19:43.699Z,1.10
2017-08-18T19:22:11.965Z,1.00
2017-08-18T19:24:39.520Z,1.00
2017-08-18T19:27:07.957Z,0.90
2017-08-18T19:29:35.465Z,0.90
2017-08-18T19:32:02.964Z,1.00
2017-08-18T19:34:30.472Z,0.98
2017-08-18T19:36:57.973Z,1.13
2017-08-18T19:39:25.501Z,1.27
2017-08-18T19:41:53.008Z,2.13
2017-08-18T19:44:20.951Z,1.48
2017-08-18T19:46:48.576Z,1.10
2017-08-18T19:49:16.688Z,1.10
2017-08-18T19:51:44.233Z,1.10
2017-08-18T19:54:11.753Z,0.90
2017-08-18T19:56:39.944Z,1.37
2017-08-18T19:59:07.461Z,1.00
2017-08-18T20:01:36.519Z,1.30
2017-08-18T20:04:04.028Z,1.05
2017-08-18T20:06:31.572Z,1.10
2017-08-18T20:08:59.080Z,0.87
2017-08-18T20:11:26.595Z,1.00
2017-08-18T20:13:54.916Z,1.50
2017-08-18T20:16:25.942Z,1.37
2017-08-18T20:18:53.456Z,1.67
2017-08-18T20:21:21.735Z,1.20
2017-08-18T20:23:49.952Z,1.10
2017-08-18T20:26:17.469Z,1.30
2017-08-18T20:28:45.005Z,1.27
2017-08-18T20:31:12.519Z,0.90
2017-08-18T20:33:40.029Z,1.20
2017-08-18T20:36:07.586Z,1.47
2017-08-18T20:38:35.864Z,1.33
2017-08-18T20:41:03.359Z,1.50
2017-08-18T20:43:30.880Z,1.30
2017-08-18T20:45:58.389Z,1.70
2017-08-18T20:48:25.912Z,1.73
2017-08-18T20:50:53.415Z,1.73
2017-08-18T20:53:21.148Z,1.50
2017-08-18T20:55:48.655Z,1.60
2017-08-18T20:58:17.338Z,1.50
2017-08-18T21:00:44.935Z,1.20
2017-08-18T21:03:12.495Z,1.25
2017-08-18T21:05:40.005Z,1.30
2017-08-18T21:08:07.535Z,1.27
2017-08-18T21:10:36.893Z,1.17
2017-08-18T21:13:04.402Z,1.35
2017-08-18T21:15:31.906Z,1.70
2017-08-18T21:17:59.424Z,1.20
2017-08-18T21:20:26.939Z,1.20
2017-08-18T21:22:55.372Z,1.52
2017-08-18T21:25:22.882Z,1.80
2017-08-18T21:27:50.387Z,1.07
2017-08-18T21:30:17.908Z,1.40
2017-08-18T21:32:45.411Z,1.40
2017-08-18T21:35:20.599Z,1.40
2017-08-18T21:37:48.100Z,1.30
2017-08-18T21:40:15.816Z,1.27
2017-08-18T21:42:44.075Z,1.50
2017-08-18T21:45:11.592Z,1.23
2017-08-18T21:47:39.772Z,1.00
2017-08-18T21:50:07.699Z,1.30
2017-08-18T21:52:35.206Z,1.20
2017-08-18T21:55:02.758Z,1.20
2017-08-18T21:57:30.308Z,1.10
2017-08-18T21:59:58.730Z,1.00
2017-08-18T22:02:26.248Z,1.37
2017-08-18T22:04:58.160Z,1.43
2017-08-18T22:07:25.665Z,1.20
2017-08-18T22:09:53.632Z,1.20
2017-08-18T22:12:21.176Z,1.03
2017-08-18T22:14:48.710Z,0.90
2017-08-18T22:17:20.254Z,0.83
2017-08-18T22:19:48.529Z,1.20
2017-08-18T22:22:16.200Z,0.90
2017-08-18T22:24:44.150Z,1.23
2017-08-18T22:27:11.672Z,1.10
2017-08-18T22:29:39.232Z,1.40
2017-08-18T22:32:07.477Z,1.40
2017-08-18T22:34:35.923Z,1.25
2017-08-18T22:37:03.504Z,1.00
2017-08-18T22:39:31.051Z,1.00
2017-08-18T22:41:58.558Z,1.33
2017-08-18T22:44:27.006Z,1.33
2017-08-18T22:46:54.511Z,1.10
2017-08-18T22:49:22.622Z,1.20
2017-08-18T22:51:50.140Z,1.10
2017-08-18T22:54:17.668Z,1.07
2017-08-18T22:56:45.781Z,0.90
2017-08-18T22:59:13.324Z,1.02
2017-08-18T23:01:40.827Z,1.50
2017-08-18T23:04:10.608Z,1.30
2017-08-18T23:06:38.640Z,1.30
2017-08-18T23:09:06.160Z,1.00
2017-08-18T23:11:35.355Z,1.33
2017-08-18T23:14:02.851Z,1.30
2017-08-18T23:16:30.859Z,1.60
2017-08-18T23:19:02.224Z,1.15
2017-08-18T23:21:30.543Z,1.52
2017-08-18T23:23:58.048Z,1.20
2017-08-18T23:26:25.557Z,1.60
2017-08-18T23:28:53.056Z,1.63
2017-08-18T23:31:20.568Z,2.17
2017-08-18T23:33:48.075Z,1.40
2017-08-18T23:36:15.587Z,1.50
2017-08-18T23:38:43.096Z,1.87
2017-08-18T23:41:11.294Z,2.00
2017-08-18T23:43:38.800Z,1.30
2017-08-18T23:46:06.515Z,1.70
2017-08-18T23:48:34.031Z,1.50
2017-08-18T23:51:04.559Z,1.35
2017-08-18T23:53:32.070Z,1.23
2017-08-18T23:55:59.604Z,1.40
2017-08-18T23:58:28.042Z,1.48
